Time;durP1;ratioP1;P1;durP2;ratioP2;P2;SDS_P1;SDS_P2;PMS_P1;PMS_P2;Temp;Humidity;BMP_temperature;BMP_pressure;BME280_temperature;BME280_humidity;BME280_pressure;Samples;Min_cycle;Max_cycle;Signal;HPM_P1;HPM_P2
2023/06/03 00:01:04;;;;;;;7.53;5.57;;;17.50;99.90;;;;;;4970491;28;20103;-80
2023/06/03 00:03:34;;;;;;;8.83;5.93;;;17.50;99.90;;;;;;4990677;28;20072;-83
2023/06/03 00:06:01;;;;;;;10.05;5.28;;;17.50;99.90;;;;;;4978543;28;20051;-82
2023/06/03 00:08:28;;;;;;;8.55;5.43;;;17.40;99.90;;;;;;5004815;28;20119;-82
2023/06/03 00:10:55;;;;;;;9.57;5.80;;;17.40;99.90;;;;;;4990361;28;20046;-82
2023/06/03 00:13:21;;;;;;;7.38;5.47;;;17.40;99.90;;;;;;4990073;28;20046;-82
2023/06/03 00:15:48;;;;;;;8.38;5.30;;;17.30;99.90;;;;;;4997973;28;20054;-81
2023/06/03 00:18:15;;;;;;;8.43;5.30;;;17.30;99.90;;;;;;4992559;28;20057;-81
2023/06/03 00:20:47;;;;;;;6.90;5.22;;;17.30;99.90;;;;;;4984674;28;20100;-82
2023/06/03 00:23:15;;;;;;;8.15;5.85;;;17.30;99.90;;;;;;4994651;28;20053;-81
2023/06/03 00:25:42;;;;;;;9.23;5.60;;;17.20;99.90;;;;;;4989858;28;20050;-82
2023/06/03 00:28:09;;;;;;;10.70;6.10;;;17.20;99.90;;;;;;4994644;28;20042;-81
2023/06/03 00:30:36;;;;;;;9.40;4.97;;;17.20;99.90;;;;;;4997776;28;20052;-82
2023/06/03 00:33:04;;;;;;;10.07;5.85;;;17.10;99.90;;;;;;4994083;28;20045;-81
2023/06/03 00:35:32;;;;;;;10.45;5.50;;;17.10;99.90;;;;;;4982433;28;20054;-82
2023/06/03 00:37:59;;;;;;;8.80;6.00;;;17.10;99.90;;;;;;4985924;28;20070;-83
2023/06/03 00:40:26;;;;;;;10.80;5.75;;;17.00;99.90;;;;;;4989106;28;20055;-83
2023/06/03 00:42:53;;;;;;;6.45;5.32;;;17.00;99.90;;;;;;4996740;28;20473;-83
2023/06/03 00:45:19;;;;;;;11.40;5.45;;;17.00;99.90;;;;;;4991469;28;20054;-83
2023/06/03 00:47:47;;;;;;;10.40;5.25;;;16.90;99.90;;;;;;4998807;28;20039;-82
2023/06/03 00:50:15;;;;;;;9.15;5.43;;;16.90;99.90;;;;;;5002131;28;20053;-81
2023/06/03 00:52:42;;;;;;;9.35;5.38;;;16.90;99.90;;;;;;5002806;28;20043;-83
2023/06/03 00:55:09;;;;;;;9.13;5.47;;;16.80;99.90;;;;;;4981516;28;20042;-83
2023/06/03 00:57:36;;;;;;;9.10;5.70;;;16.80;99.90;;;;;;4995856;28;20047;-83
2023/06/03 01:00:03;;;;;;;9.10;5.18;;;16.80;99.90;;;;;;5004530;28;20039;-83
2023/06/03 01:02:31;;;;;;;9.43;5.85;;;16.70;99.90;;;;;;5020194;28;20046;-83
2023/06/03 01:04:58;;;;;;;8.25;5.45;;;16.70;99.90;;;;;;5004255;28;20054;-84
2023/06/03 01:07:41;;;;;;;8.00;5.63;;;16.70;99.90;;;;;;4995937;28;20046;-83
2023/06/03 01:10:27;;;;;;;6.63;5.65;;;16.70;99.90;;;;;;4995026;28;20078;-84
2023/06/03 01:13:04;;;;;;;8.35;5.82;;;16.60;99.90;;;;;;5010703;28;20096;-83
2023/06/03 01:15:34;;;;;;;13.05;5.93;;;16.50;99.90;;;;;;5000905;28;20054;-84
2023/06/03 01:18:05;;;;;;;6.93;5.18;;;16.50;99.90;;;;;;5008855;28;20086;-86
2023/06/03 01:20:33;;;;;;;6.68;5.38;;;16.50;99.90;;;;;;5007668;28;20048;-84
2023/06/03 01:23:12;;;;;;;8.45;5.40;;;16.50;99.90;;;;;;4992201;28;20042;-82
2023/06/03 01:25:42;;;;;;;10.55;5.85;;;16.40;99.90;;;;;;4984793;28;20046;-82
2023/06/03 01:28:09;;;;;;;6.00;5.40;;;16.40;99.90;;;;;;4990544;28;20069;-81
2023/06/03 01:30:36;;;;;;;9.20;5.70;;;16.40;99.90;;;;;;4985091;28;20291;-81
2023/06/03 01:33:04;;;;;;;15.00;7.25;;;16.30;99.90;;;;;;4995185;28;20042;-82
2023/06/03 01:35:32;;;;;;;9.45;5.72;;;16.30;99.90;;;;;;4984816;28;20101;-82
2023/06/03 01:37:59;;;;;;;9.57;5.97;;;16.30;99.90;;;;;;4998674;28;20105;-83
2023/06/03 01:40:26;;;;;;;10.95;5.78;;;16.30;99.90;;;;;;4985381;28;20047;-81
2023/06/03 01:42:53;;;;;;;9.57;5.53;;;16.20;99.90;;;;;;4990274;28;20065;-83
2023/06/03 01:45:20;;;;;;;9.48;5.40;;;16.20;99.90;;;;;;4984921;28;20098;-81
2023/06/03 01:47:47;;;;;;;10.43;6.13;;;16.20;99.90;;;;;;4994928;28;20058;-80
2023/06/03 01:50:16;;;;;;;8.98;6.07;;;16.20;99.90;;;;;;4995749;28;20043;-83
2023/06/03 01:52:44;;;;;;;7.90;5.88;;;16.10;99.90;;;;;;5000847;28;20050;-83
2023/06/03 01:55:12;;;;;;;9.80;6.00;;;16.10;99.90;;;;;;5004842;28;20043;-83
2023/06/03 01:57:38;;;;;;;11.00;5.70;;;16.10;99.90;;;;;;4989984;28;20059;-81
2023/06/03 02:00:06;;;;;;;8.05;6.30;;;16.10;99.90;;;;;;5006671;28;20070;-81
2023/06/03 02:02:33;;;;;;;9.68;5.72;;;16.00;99.90;;;;;;4999104;28;20052;-81
2023/06/03 02:05:00;;;;;;;10.60;6.10;;;16.00;99.90;;;;;;4988407;28;20080;-81
2023/06/03 02:07:30;;;;;;;7.55;5.45;;;16.00;99.90;;;;;;5000428;28;20046;-82
2023/06/03 02:09:57;;;;;;;8.10;6.03;;;15.90;99.90;;;;;;4996745;28;20042;-83
2023/06/03 02:12:24;;;;;;;10.50;6.15;;;15.90;99.90;;;;;;4998935;28;21055;-83
2023/06/03 02:14:53;;;;;;;12.85;6.93;;;15.90;99.90;;;;;;4989200;28;20074;-82
2023/06/03 02:17:26;;;;;;;7.25;5.97;;;15.90;99.90;;;;;;5003496;28;20066;-82
2023/06/03 02:19:55;;;;;;;7.03;6.13;;;15.80;99.90;;;;;;5000900;28;20061;-83
2023/06/03 02:22:22;;;;;;;6.70;5.65;;;15.80;99.90;;;;;;4991296;28;20043;-82
2023/06/03 02:24:49;;;;;;;9.57;6.22;;;15.80;99.90;;;;;;4998004;28;20061;-82
2023/06/03 02:27:24;;;;;;;8.50;6.05;;;15.80;99.90;;;;;;4993884;28;20057;-81
2023/06/03 02:29:52;;;;;;;9.90;5.95;;;15.70;99.90;;;;;;5004725;28;20050;-82
2023/06/03 02:32:19;;;;;;;7.88;5.80;;;15.70;99.90;;;;;;5005225;28;20042;-83
2023/06/03 02:34:48;;;;;;;10.60;6.10;;;15.70;99.90;;;;;;4999882;28;20075;-82
2023/06/03 02:37:17;;;;;;;6.80;5.43;;;15.60;99.90;;;;;;4996524;28;20054;-82
2023/06/03 02:39:44;;;;;;;8.40;5.85;;;15.60;99.90;;;;;;4992865;28;20426;-81
2023/06/03 02:42:11;;;;;;;8.80;6.30;;;15.60;99.90;;;;;;4975948;28;20098;-83
2023/06/03 02:44:38;;;;;;;8.77;5.97;;;15.50;99.90;;;;;;4996115;28;20050;-82
2023/06/03 02:47:05;;;;;;;9.98;5.88;;;15.50;99.90;;;;;;4976961;28;20105;-83
2023/06/03 02:49:32;;;;;;;11.25;5.97;;;15.50;99.90;;;;;;4998256;28;20050;-82
2023/06/03 02:51:59;;;;;;;8.13;6.10;;;15.50;99.90;;;;;;4997650;28;20050;-81
2023/06/03 02:54:26;;;;;;;9.27;5.95;;;15.50;99.90;;;;;;4989293;28;20051;-83
2023/06/03 02:56:52;;;;;;;10.75;5.40;;;15.50;99.90;;;;;;4988196;28;20494;-82
2023/06/03 02:59:19;;;;;;;8.15;6.13;;;15.40;99.90;;;;;;4994073;28;20141;-81
2023/06/03 03:01:46;;;;;;;8.70;6.70;;;15.40;99.90;;;;;;4994200;28;20054;-82
2023/06/03 03:04:13;;;;;;;8.65;6.40;;;15.40;99.90;;;;;;4995630;28;20061;-82
2023/06/03 03:06:40;;;;;;;9.63;6.07;;;15.40;99.90;;;;;;5009102;28;20081;-81
2023/06/03 03:09:08;;;;;;;8.48;6.40;;;15.40;99.90;;;;;;4998188;28;20070;-81
2023/06/03 03:11:35;;;;;;;9.25;5.90;;;15.30;99.90;;;;;;4993476;28;20057;-83
2023/06/03 03:14:02;;;;;;;9.05;6.18;;;15.30;99.90;;;;;;5000393;28;20043;-81
2023/06/03 03:16:29;;;;;;;8.18;5.88;;;15.30;99.90;;;;;;4986889;28;20058;-82
2023/06/03 03:18:56;;;;;;;10.90;6.43;;;15.30;99.90;;;;;;4998477;28;20085;-82
2023/06/03 03:21:23;;;;;;;8.98;5.47;;;15.30;99.90;;;;;;4990629;28;20046;-84
2023/06/03 03:23:50;;;;;;;8.25;6.30;;;15.20;99.90;;;;;;5020826;28;20073;-83
2023/06/03 03:26:21;;;;;;;10.27;6.30;;;15.20;99.90;;;;;;4995475;28;20089;-83
2023/06/03 03:28:48;;;;;;;8.82;6.13;;;15.20;99.90;;;;;;4998611;28;20485;-83
2023/06/03 03:31:15;;;;;;;8.55;6.05;;;15.10;99.90;;;;;;4983400;28;20047;-82
2023/06/03 03:33:41;;;;;;;7.63;6.25;;;15.10;99.90;;;;;;5001866;28;20050;-83
2023/06/03 03:36:13;;;;;;;8.60;6.07;;;15.10;99.90;;;;;;4981915;28;20078;-83
2023/06/03 03:38:40;;;;;;;9.43;6.28;;;15.10;99.90;;;;;;4996654;28;20055;-85
2023/06/03 03:41:06;;;;;;;10.63;5.70;;;15.10;99.90;;;;;;4981231;28;20030;-82
2023/06/03 03:43:34;;;;;;;9.40;6.28;;;15.00;99.90;;;;;;5002915;28;20120;-84
2023/06/03 03:46:01;;;;;;;8.10;6.10;;;15.00;99.90;;;;;;5002494;28;20054;-83
2023/06/03 03:48:30;;;;;;;12.25;6.18;;;15.00;99.90;;;;;;5000936;28;20074;-84
2023/06/03 03:50:57;;;;;;;10.82;5.78;;;15.00;99.90;;;;;;4999667;28;20058;-82
2023/06/03 03:53:31;;;;;;;8.40;7.05;;;15.00;99.90;;;;;;4991116;28;20046;-84
2023/06/03 03:55:59;;;;;;;10.43;6.50;;;15.00;99.90;;;;;;5003275;28;20050;-82
2023/06/03 03:58:43;;;;;;;8.98;6.18;;;14.90;99.90;;;;;;5002190;28;20074;-82
2023/06/03 04:01:24;;;;;;;10.57;6.80;;;14.90;99.90;;;;;;4995668;28;20425;-82
2023/06/03 04:03:54;;;;;;;12.38;6.30;;;15.00;99.90;;;;;;4999397;28;20055;-83
2023/06/03 04:06:36;;;;;;;8.82;5.80;;;15.00;99.90;;;;;;4997274;28;20050;-82
2023/06/03 04:09:08;;;;;;;8.48;6.00;;;15.00;99.90;;;;;;4996655;28;20074;-82
2023/06/03 04:11:37;;;;;;;12.25;6.93;;;15.00;99.90;;;;;;4995900;28;20057;-83
2023/06/03 04:14:08;;;;;;;9.00;6.18;;;15.00;99.90;;;;;;5005236;28;20050;-81
2023/06/03 04:16:58;;;;;;;10.23;6.10;;;15.00;99.90;;;;;;4998953;28;20054;-83
2023/06/03 04:19:36;;;;;;;8.45;5.22;;;15.00;99.90;;;;;;4992302;28;20050;-84
2023/06/03 04:22:07;;;;;;;7.20;5.60;;;15.00;99.90;;;;;;4997439;28;20050;-85
2023/06/03 04:24:35;;;;;;;9.00;6.50;;;14.90;99.90;;;;;;5001749;28;20050;-84
2023/06/03 04:27:02;;;;;;;12.30;6.13;;;15.00;99.90;;;;;;4997357;28;20158;-85
2023/06/03 04:29:32;;;;;;;10.23;5.95;;;15.00;99.90;;;;;;5002918;28;20086;-84
2023/06/03 04:31:59;;;;;;;8.50;5.93;;;15.00;99.90;;;;;;5002864;28;20101;-83
2023/06/03 04:34:27;;;;;;;11.85;6.78;;;15.00;99.90;;;;;;5001024;28;20057;-84
2023/06/03 04:36:54;;;;;;;11.27;6.70;;;15.10;99.90;;;;;;4994147;28;20069;-85
2023/06/03 04:39:21;;;;;;;8.98;7.03;;;15.10;99.90;;;;;;5001921;28;20039;-84
2023/06/03 04:41:49;;;;;;;10.40;6.07;;;15.10;99.90;;;;;;5016947;28;20046;-84
2023/06/03 04:44:16;;;;;;;10.48;6.25;;;15.10;99.90;;;;;;5007825;28;20046;-84
2023/06/03 04:46:45;;;;;;;9.27;6.05;;;15.10;99.90;;;;;;5006453;28;20050;-85
2023/06/03 04:49:13;;;;;;;6.80;5.72;;;15.20;99.90;;;;;;5003224;28;20127;-82
2023/06/03 04:51:40;;;;;;;8.27;5.90;;;15.20;99.90;;;;;;5001738;28;20525;-82
2023/06/03 04:54:07;;;;;;;8.38;6.03;;;15.30;99.90;;;;;;5000304;28;20053;-83
2023/06/03 04:56:34;;;;;;;11.95;6.18;;;15.50;99.90;;;;;;4995263;28;20074;-82
2023/06/03 04:59:03;;;;;;;10.57;6.45;;;15.50;99.90;;;;;;5000856;28;20085;-84
2023/06/03 05:01:36;;;;;;;10.45;6.20;;;15.70;99.90;;;;;;5003578;28;20072;-86
2023/06/03 05:04:05;;;;;;;6.38;5.18;;;15.90;99.90;;;;;;5005141;28;20050;-83
2023/06/03 05:06:33;;;;;;;9.70;6.38;;;16.00;99.90;;;;;;4992942;28;20049;-83
2023/06/03 05:09:00;;;;;;;14.52;6.05;;;16.10;99.90;;;;;;4991386;28;20050;-82
2023/06/03 05:11:27;;;;;;;10.25;5.63;;;16.20;99.90;;;;;;4994694;28;20051;-84
2023/06/03 05:13:54;;;;;;;8.82;5.55;;;16.40;99.90;;;;;;4991044;28;20502;-82
2023/06/03 05:16:21;;;;;;;9.13;5.80;;;16.50;99.90;;;;;;5002144;28;20540;-81
2023/06/03 05:18:47;;;;;;;7.72;6.07;;;16.60;99.90;;;;;;4999670;28;20050;-82
2023/06/03 05:21:19;;;;;;;10.60;5.88;;;16.70;99.90;;;;;;4995041;28;20042;-82
2023/06/03 05:23:46;;;;;;;9.20;5.38;;;16.80;99.90;;;;;;4989130;28;20051;-84
2023/06/03 05:26:12;;;;;;;7.28;5.40;;;17.00;99.90;;;;;;4994286;28;20410;-83
2023/06/03 05:28:39;;;;;;;15.60;6.43;;;17.00;99.90;;;;;;5000844;28;20077;-82
2023/06/03 05:31:06;;;;;;;11.82;6.18;;;17.00;99.90;;;;;;5003645;28;20054;-83
2023/06/03 05:33:35;;;;;;;9.70;5.40;;;17.00;99.90;;;;;;5018754;28;20102;-82
2023/06/03 05:36:02;;;;;;;9.57;5.50;;;17.00;99.90;;;;;;4999076;28;20043;-85
2023/06/03 05:38:30;;;;;;;13.07;5.50;;;17.00;99.90;;;;;;4989978;28;20077;-82
2023/06/03 05:40:58;;;;;;;9.50;5.10;;;16.90;99.90;;;;;;4996450;28;20484;-82
2023/06/03 05:43:24;;;;;;;10.85;5.20;;;16.80;99.90;;;;;;5002357;28;20101;-84
2023/06/03 05:45:51;;;;;;;11.48;5.80;;;16.70;99.90;;;;;;5002989;28;20050;-83
2023/06/03 05:48:18;;;;;;;11.38;5.35;;;16.50;99.90;;;;;;5001258;28;20046;-84
2023/06/03 05:50:50;;;;;;;13.63;5.70;;;16.40;99.90;;;;;;4991809;28;20492;-83
2023/06/03 05:53:22;;;;;;;12.40;5.25;;;16.30;99.90;;;;;;4998703;28;20046;-83
2023/06/03 05:55:50;;;;;;;9.25;4.78;;;16.30;99.90;;;;;;5003106;28;20058;-82
2023/06/03 05:58:17;;;;;;;9.60;4.53;;;16.30;99.90;;;;;;4989958;28;20050;-83
2023/06/03 06:00:44;;;;;;;12.98;5.03;;;16.10;99.90;;;;;;5000124;28;20050;-82
2023/06/03 06:03:13;;;;;;;11.52;4.50;;;16.10;99.90;;;;;;4998070;28;20083;-83
2023/06/03 06:05:40;;;;;;;12.35;5.03;;;16.00;99.90;;;;;;4991255;28;20082;-82
2023/06/03 06:08:07;;;;;;;13.52;4.72;;;16.00;99.90;;;;;;4986372;28;20053;-83
2023/06/03 06:10:34;;;;;;;14.38;4.60;;;16.00;99.90;;;;;;5008062;28;20069;-82
2023/06/03 06:13:01;;;;;;;11.05;4.60;;;16.00;99.90;;;;;;4996418;28;20061;-83
2023/06/03 06:15:31;;;;;;;10.48;4.60;;;15.90;99.90;;;;;;4999025;28;20047;-81
2023/06/03 06:17:58;;;;;;;;;;;16.00;99.90;;;;;;4986402;28;20050;-81
2023/06/03 06:20:25;;;;;;;9.68;4.75;;;16.00;99.90;;;;;;4990807;28;20278;-83
2023/06/03 06:22:53;;;;;;;9.40;4.43;;;16.00;99.90;;;;;;4998195;28;20526;-83
2023/06/03 06:25:20;;;;;;;8.70;3.97;;;16.10;99.90;;;;;;4980040;28;20501;-85
2023/06/03 06:27:47;;;;;;;9.45;4.53;;;16.20;99.90;;;;;;5002196;28;20046;-84
2023/06/03 06:30:14;;;;;;;11.23;4.30;;;16.20;99.90;;;;;;5002543;28;20077;-84
2023/06/03 06:32:52;;;;;;;9.52;4.65;;;16.10;99.90;;;;;;5016301;28;20463;-84
2023/06/03 06:35:20;;;;;;;13.20;4.90;;;16.20;99.90;;;;;;4991056;28;20055;-83
2023/06/03 06:37:48;;;;;;;8.13;3.85;;;16.20;99.90;;;;;;4984904;28;20421;-83
2023/06/03 06:40:18;;;;;;;11.52;4.55;;;16.20;99.90;;;;;;4989546;28;20057;-83
2023/06/03 06:42:45;;;;;;;11.83;4.67;;;16.30;99.90;;;;;;5008700;28;20061;-84
2023/06/03 06:45:22;;;;;;;10.35;4.97;;;16.40;99.90;;;;;;4996898;28;20069;-83
2023/06/03 06:47:48;;;;;;;8.90;4.90;;;16.40;99.90;;;;;;4993821;28;20047;-84
2023/06/03 06:50:47;;;;;;;12.75;4.97;;;16.40;99.90;;;;;;4991332;28;20047;-83
2023/06/03 06:53:15;;;;;;;14.07;4.93;;;16.50;99.90;;;;;;4989504;28;20038;-83
2023/06/03 06:56:01;;;;;;;11.35;4.50;;;16.50;99.90;;;;;;4993945;28;20046;-83
2023/06/03 06:58:38;;;;;;;9.25;4.97;;;16.60;99.90;;;;;;4995451;28;20058;-84
2023/06/03 07:01:09;;;;;;;11.20;4.93;;;16.70;99.90;;;;;;4995991;28;20050;-83
2023/06/03 07:03:36;;;;;;;8.95;4.53;;;16.70;99.90;;;;;;4984905;28;20066;-84
2023/06/03 07:06:04;;;;;;;7.75;4.32;;;16.70;99.90;;;;;;4998822;28;20084;-84
2023/06/03 07:08:30;;;;;;;10.35;4.30;;;16.80;99.90;;;;;;4996174;28;20133;-84
2023/06/03 07:11:03;;;;;;;11.00;5.13;;;16.80;99.90;;;;;;4995948;28;20046;-82
2023/06/03 07:13:30;;;;;;;12.82;5.15;;;16.80;99.90;;;;;;4999406;28;20054;-85
2023/06/03 07:15:57;;;;;;;9.45;4.20;;;16.80;99.90;;;;;;5001059;28;20114;-84
2023/06/03 07:18:25;;;;;;;11.93;4.80;;;16.90;99.90;;;;;;5003002;28;20061;-85
2023/06/03 07:20:53;;;;;;;8.60;4.85;;;16.90;99.90;;;;;;5003146;28;20050;-83
2023/06/03 07:23:23;;;;;;;10.38;5.82;;;16.90;99.90;;;;;;4981916;28;20077;-83
2023/06/03 07:25:52;;;;;;;10.98;4.65;;;17.00;99.90;;;;;;4992210;28;20070;-84
2023/06/03 07:28:28;;;;;;;11.70;5.75;;;17.00;99.90;;;;;;5002145;28;20046;-84
2023/06/03 07:30:56;;;;;;;11.90;4.82;;;17.00;99.90;;;;;;5000519;28;20462;-84
2023/06/03 07:33:28;;;;;;;12.90;5.70;;;17.00;99.90;;;;;;4983154;28;20054;-82
2023/06/03 07:35:57;;;;;;;12.85;5.47;;;17.10;99.90;;;;;;5001625;28;20078;-82
2023/06/03 07:38:37;;;;;;;10.68;4.80;;;17.10;99.90;;;;;;4998273;28;20178;-85
2023/06/03 07:41:04;;;;;;;13.70;5.15;;;17.10;99.90;;;;;;4998497;28;20051;-84
2023/06/03 07:43:33;;;;;;;11.05;5.63;;;17.20;99.90;;;;;;5003197;28;20050;-84
2023/06/03 07:46:07;;;;;;;9.38;5.03;;;17.20;99.90;;;;;;5001180;28;20058;-84
2023/06/03 07:48:37;;;;;;;8.13;5.47;;;17.20;99.90;;;;;;4999241;28;20047;-84
2023/06/03 07:51:07;;;;;;;13.82;5.55;;;17.20;99.90;;;;;;4998613;28;20051;-84
2023/06/03 07:53:39;;;;;;;9.48;5.07;;;17.30;99.90;;;;;;4980356;28;20059;-82
2023/06/03 07:56:10;;;;;;;11.43;5.18;;;17.30;99.90;;;;;;4991537;28;20043;-84
2023/06/03 07:58:37;;;;;;;10.35;5.20;;;17.40;99.90;;;;;;4991767;28;20046;-83
2023/06/03 08:01:04;;;;;;;12.32;5.30;;;17.40;99.90;;;;;;5002457;28;20057;-84
2023/06/03 08:03:33;;;;;;;11.85;5.40;;;17.50;99.90;;;;;;4984437;28;20043;-86
2023/06/03 08:06:00;;;;;;;8.93;4.95;;;17.50;99.90;;;;;;5005032;28;20050;-85
2023/06/03 08:08:32;;;;;;;9.90;4.88;;;17.50;99.90;;;;;;4987560;28;20089;-83
2023/06/03 08:11:01;;;;;;;13.00;5.60;;;17.60;99.90;;;;;;4997139;28;20050;-84
2023/06/03 08:13:28;;;;;;;10.27;5.22;;;17.70;99.90;;;;;;5009817;28;20091;-85
2023/06/03 08:15:55;;;;;;;9.40;5.22;;;17.70;99.90;;;;;;5008880;28;20042;-85
2023/06/03 08:18:37;;;;;;;10.85;5.45;;;17.70;99.90;;;;;;4983465;28;20081;-83
2023/06/03 08:21:04;;;;;;;11.98;5.82;;;17.80;99.90;;;;;;4995293;28;20051;-83
2023/06/03 08:23:32;;;;;;;10.32;5.50;;;17.80;99.90;;;;;;5005194;28;20088;-82
2023/06/03 08:26:00;;;;;;;9.82;5.30;;;17.90;99.90;;;;;;5005137;28;20077;-84
2023/06/03 08:28:26;;;;;;;11.88;5.35;;;17.90;99.90;;;;;;5008634;28;20047;-82
2023/06/03 08:30:54;;;;;;;10.85;6.18;;;17.90;99.90;;;;;;5005381;28;20073;-84
2023/06/03 08:33:21;;;;;;;15.68;5.70;;;17.90;99.90;;;;;;5008354;28;20038;-83
2023/06/03 08:35:48;;;;;;;13.40;5.53;;;18.00;99.90;;;;;;5006077;28;20031;-83
2023/06/03 08:38:16;;;;;;;13.25;5.85;;;18.10;99.90;;;;;;5008130;28;20065;-84
2023/06/03 08:40:48;;;;;;;15.98;6.47;;;18.10;99.90;;;;;;5007552;28;20424;-85
2023/06/03 08:43:16;;;;;;;13.13;5.88;;;18.20;99.90;;;;;;5008174;28;20077;-85
2023/06/03 08:46:00;;;;;;;13.85;6.20;;;18.20;99.90;;;;;;4998700;28;20418;-83
2023/06/03 08:49:00;;;;;;;15.73;6.32;;;18.20;99.90;;;;;;4998534;28;20109;-82
2023/06/03 08:51:27;;;;;;;17.63;6.32;;;18.30;99.90;;;;;;5012191;28;20453;-84
2023/06/03 08:53:55;;;;;;;13.40;6.57;;;18.30;99.90;;;;;;5001443;28;20550;-86
2023/06/03 08:56:22;;;;;;;12.90;6.22;;;18.30;99.90;;;;;;5002603;28;20050;-84
2023/06/03 08:58:55;;;;;;;11.45;5.60;;;18.30;99.90;;;;;;5006664;28;20041;-84
2023/06/03 09:01:29;;;;;;;19.98;6.50;;;18.40;99.90;;;;;;5019125;28;20046;-84
2023/06/03 09:03:57;;;;;;;14.20;5.70;;;18.40;99.90;;;;;;5002520;28;20074;-82
2023/06/03 09:06:24;;;;;;;15.77;6.15;;;18.50;99.90;;;;;;5005009;28;20109;-85
2023/06/03 09:08:53;;;;;;;11.60;6.03;;;18.50;99.90;;;;;;4996708;28;20074;-83
2023/06/03 09:11:22;;;;;;;8.43;5.95;;;18.60;99.90;;;;;;4996056;28;20046;-83
2023/06/03 09:13:50;;;;;;;11.90;5.60;;;18.60;99.90;;;;;;4990016;28;20038;-84
2023/06/03 09:16:18;;;;;;;12.60;4.93;;;18.70;99.90;;;;;;5014358;28;20054;-84
2023/06/03 09:18:45;;;;;;;12.02;5.40;;;18.70;99.90;;;;;;4996676;28;20498;-82
2023/06/03 09:21:12;;;;;;;11.32;5.82;;;18.80;99.90;;;;;;4997629;28;20062;-83
2023/06/03 09:23:40;;;;;;;13.63;6.85;;;18.80;99.90;;;;;;4977136;28;20051;-84
2023/06/03 09:26:07;;;;;;;13.45;6.07;;;18.90;99.90;;;;;;4994148;28;20051;-83
2023/06/03 09:28:37;;;;;;;16.23;6.07;;;18.90;99.90;;;;;;4988196;28;20054;-83
2023/06/03 09:31:05;;;;;;;16.93;5.87;;;19.00;99.90;;;;;;5000178;28;20396;-83
2023/06/03 09:33:32;;;;;;;13.60;6.20;;;19.00;99.90;;;;;;4995168;28;20051;-83
2023/06/03 09:36:06;;;;;;;11.10;5.15;;;19.10;99.90;;;;;;4988376;28;20058;-84
2023/06/03 09:38:54;;;;;;;11.98;5.45;;;19.10;99.90;;;;;;4993865;28;20047;-83
2023/06/03 09:41:25;;;;;;;12.00;6.40;;;19.20;99.90;;;;;;4993909;28;20042;-83
2023/06/03 09:43:54;;;;;;;11.38;5.70;;;19.30;99.90;;;;;;4996286;28;20050;-83
2023/06/03 09:46:21;;;;;;;9.40;5.38;;;19.30;99.90;;;;;;5005596;28;20109;-83
2023/06/03 09:48:48;;;;;;;7.85;4.75;;;19.30;99.90;;;;;;4995985;28;20046;-83
2023/06/03 09:51:15;;;;;;;13.48;5.57;;;19.40;99.90;;;;;;4994342;28;20047;-83
2023/06/03 09:53:42;;;;;;;9.65;5.55;;;19.50;99.90;;;;;;4991686;28;20047;-82
2023/06/03 09:56:26;;;;;;;13.00;5.25;;;19.60;99.90;;;;;;4997153;28;20054;-83
2023/06/03 09:59:16;;;;;;;9.13;5.18;;;19.60;99.90;;;;;;4995962;28;20050;-84
2023/06/03 10:01:47;;;;;;;12.80;5.45;;;19.70;99.90;;;;;;4993729;28;20046;-83
2023/06/03 10:04:22;;;;;;;14.23;5.45;;;19.70;99.90;;;;;;4982095;28;20074;-84
2023/06/03 10:07:08;;;;;;;8.73;4.43;;;19.80;99.90;;;;;;5007817;28;20080;-82
2023/06/03 10:09:35;;;;;;;10.95;5.72;;;19.90;99.90;;;;;;4990985;28;20081;-83
2023/06/03 10:12:03;;;;;;;6.10;4.40;;;19.90;99.90;;;;;;4988091;28;20183;-82
2023/06/03 10:14:29;;;;;;;11.77;5.28;;;20.00;99.90;;;;;;4997183;28;20133;-83
2023/06/03 10:17:06;;;;;;;7.90;4.68;;;20.00;99.90;;;;;;4995248;28;20104;-83
2023/06/03 10:19:34;;;;;;;7.90;4.90;;;20.10;99.90;;;;;;4987992;28;20054;-82
2023/06/03 10:22:03;;;;;;;10.82;5.32;;;20.10;99.90;;;;;;4992454;28;20053;-82
2023/06/03 10:24:36;;;;;;;8.18;4.85;;;20.10;99.90;;;;;;4984607;28;20492;-82
2023/06/03 10:27:04;;;;;;;12.68;5.35;;;20.20;99.90;;;;;;4996032;28;20506;-83
2023/06/03 10:29:32;;;;;;;9.15;4.88;;;20.20;99.90;;;;;;4997889;28;20130;-83
2023/06/03 10:32:01;;;;;;;9.88;4.65;;;20.30;99.90;;;;;;5002575;28;20042;-85
2023/06/03 10:34:29;;;;;;;11.25;5.45;;;20.40;99.90;;;;;;5002889;28;20054;-83
2023/06/03 10:36:57;;;;;;;12.45;4.82;;;20.40;99.90;;;;;;5005999;28;20046;-84
2023/06/03 10:39:27;;;;;;;10.40;4.75;;;20.50;99.90;;;;;;5000171;28;20081;-83
2023/06/03 10:41:58;;;;;;;7.60;4.90;;;20.50;99.90;;;;;;5007556;28;20050;-85
2023/06/03 10:44:25;;;;;;;;;;;20.60;99.90;;;;;;5004886;28;20050;-84
2023/06/03 10:46:59;;;;;;;14.70;4.93;;;20.60;99.90;;;;;;5002251;28;19922;-83
2023/06/03 10:49:38;;;;;;;8.75;4.75;;;20.70;99.90;;;;;;4990974;28;20054;-86
2023/06/03 10:52:48;;;;;;;8.95;4.97;;;20.70;99.90;;;;;;5003488;28;20051;-84
2023/06/03 10:55:51;;;;;;;8.27;4.85;;;20.80;99.90;;;;;;4981396;28;20059;-84
2023/06/03 10:58:23;;;;;;;12.50;4.90;;;20.90;99.90;;;;;;4983164;28;20039;-83
2023/06/03 11:00:53;;;;;;;11.77;4.78;;;20.90;99.90;;;;;;5002849;28;20414;-84
2023/06/03 11:03:21;;;;;;;11.30;5.53;;;21.00;99.90;;;;;;4992572;28;20050;-82
2023/06/03 11:05:48;;;;;;;10.10;4.47;;;21.00;99.90;;;;;;4996948;28;20042;-85
2023/06/03 11:08:53;;;;;;;13.43;4.80;;;21.10;99.90;;;;;;5015719;28;20050;-84
2023/06/03 11:11:42;;;;;;;12.20;4.88;;;21.10;99.90;;;;;;5002610;28;20046;-84
2023/06/03 11:14:29;;;;;;;9.38;5.00;;;21.20;99.90;;;;;;5002817;28;20052;-83
2023/06/03 11:17:00;;;;;;;7.55;5.07;;;21.20;99.90;;;;;;4987967;28;20070;-84
2023/06/03 11:19:30;;;;;;;8.85;4.93;;;21.30;99.90;;;;;;4991882;28;20061;-84
2023/06/03 11:21:58;;;;;;;9.07;4.40;;;21.30;99.90;;;;;;5000229;28;20057;-85
2023/06/03 11:24:41;;;;;;;10.35;5.15;;;21.40;99.90;;;;;;4999071;28;20062;-86
2023/06/03 11:27:19;;;;;;;7.82;4.95;;;21.40;99.90;;;;;;5005338;28;20046;-85
2023/06/03 11:29:46;;;;;;;8.35;4.60;;;21.50;99.90;;;;;;5006594;28;20042;-85
2023/06/03 11:32:14;;;;;;;11.77;4.72;;;21.50;99.90;;;;;;5004761;28;20086;-84
2023/06/03 11:34:41;;;;;;;13.02;5.43;;;21.60;99.90;;;;;;5001642;28;20073;-84
2023/06/03 11:37:09;;;;;;;8.55;5.20;;;21.70;99.90;;;;;;4997442;28;20047;-83
2023/06/03 11:40:05;;;;;;;8.23;4.28;;;21.70;99.90;;;;;;4993358;28;20059;-85
2023/06/03 11:42:50;;;;;;;11.50;4.25;;;21.80;99.90;;;;;;5008679;28;20054;-86
2023/06/03 11:45:17;;;;;;;10.02;5.07;;;21.80;99.90;;;;;;5008607;28;20043;-86
2023/06/03 11:47:59;;;;;;;9.95;5.30;;;21.90;99.90;;;;;;5012574;28;20057;-86
2023/06/03 11:50:28;;;;;;;12.82;5.10;;;21.90;99.90;;;;;;5010663;28;20054;-84
2023/06/03 11:52:55;;;;;;;9.00;4.75;;;22.00;99.90;;;;;;5000400;28;20058;-85
2023/06/03 11:55:32;;;;;;;11.57;5.05;;;22.00;99.90;;;;;;5002481;28;20077;-84
2023/06/03 11:58:12;;;;;;;12.63;4.43;;;22.00;99.90;;;;;;5002406;28;20069;-86
2023/06/03 12:00:39;;;;;;;8.80;4.78;;;22.00;99.90;;;;;;5007583;28;20042;-84
2023/06/03 12:03:13;;;;;;;11.48;5.40;;;22.10;99.90;;;;;;5003891;28;20054;-84
2023/06/03 12:05:53;;;;;;;9.35;4.70;;;22.20;99.90;;;;;;4984752;28;20046;-85
2023/06/03 12:08:20;;;;;;;11.75;4.93;;;22.20;99.90;;;;;;5003547;28;20050;-84
2023/06/03 12:10:47;;;;;;;13.75;4.95;;;22.30;99.90;;;;;;5019415;28;20076;-85
2023/06/03 12:13:14;;;;;;;11.52;4.38;;;22.30;99.90;;;;;;4994975;28;20089;-85
2023/06/03 12:15:50;;;;;;;9.43;4.75;;;22.40;99.90;;;;;;5010081;28;20038;-83
2023/06/03 12:18:17;;;;;;;13.02;4.32;;;22.40;99.90;;;;;;4993782;28;20511;-84
2023/06/03 12:20:44;;;;;;;11.05;5.05;;;22.50;99.90;;;;;;5004003;28;20054;-85
2023/06/03 12:23:22;;;;;;;8.65;5.47;;;22.50;99.90;;;;;;5015740;28;20054;-84
2023/06/03 12:25:55;;;;;;;9.93;4.68;;;22.60;99.90;;;;;;5001988;28;20049;-85
2023/06/03 12:28:28;;;;;;;9.27;5.03;;;22.60;99.90;;;;;;4990273;28;20054;-85
2023/06/03 12:30:55;;;;;;;10.55;4.82;;;22.70;99.90;;;;;;4995203;28;20043;-84
2023/06/03 12:33:22;;;;;;;8.10;4.40;;;22.70;99.90;;;;;;4993956;28;20706;-85
2023/06/03 12:35:54;;;;;;;10.13;5.53;;;22.80;99.90;;;;;;5005792;28;20569;-85
2023/06/03 12:38:21;;;;;;;10.52;5.05;;;22.80;99.90;;;;;;5002093;28;20105;-84
2023/06/03 12:40:48;;;;;;;10.77;4.63;;;22.80;99.90;;;;;;5019429;28;20055;-85
2023/06/03 12:43:21;;;;;;;10.70;5.13;;;22.80;99.90;;;;;;4998057;28;20525;-86
2023/06/03 12:45:48;;;;;;;9.32;5.05;;;23.00;99.90;;;;;;5007805;28;20624;-85
2023/06/03 12:48:31;;;;;;;12.55;5.55;;;23.00;99.90;;;;;;4994165;28;20057;-84
2023/06/03 12:50:59;;;;;;;9.68;5.10;;;23.00;99.90;;;;;;4999264;28;20070;-85
2023/06/03 12:53:26;;;;;;;12.05;4.88;;;23.00;99.90;;;;;;4996162;28;20082;-84
2023/06/03 12:55:53;;;;;;;10.30;5.55;;;23.10;99.90;;;;;;4996697;28;20046;-84
2023/06/03 12:58:20;;;;;;;7.40;4.70;;;23.10;99.90;;;;;;5001254;28;20047;-85